Terminal Aerodrome Forecast
Issued by NWS

Home | Current Version | Previous Version | Text Only | Print | Product List | Glossary On
Versions: 1 2 3 4 5 6 7 8 9 10 11 12 13 14 15
000
FTUS45 KRIW 190500 RRA
TAFLND
TAF
KLND 190544Z 1906/2006 03008KT P6SM VCSH BKN035
      TEMPO 1906/1910 BKN028
     FM191100 VRB05KT P6SM BKN040
     FM192100 02005KT P6SM VCSH SCT040 BKN060
     FM200200 VRB05KT P6SM BKN070=

USA.gov is the U.S. government's official web portal to all federal, state and local government web resources and services.